< < Back
Terminal Aerodrome Forecast


Current Version              Previous Versions:   1  2  3  4  5  6  7  8  9  

Terminal Aerodrome Forecast

702
FTUS44 KMRX 262320
TAFTYS
TAF
KTYS 262320Z 2700/2724 25006KT P6SM VCTS BKN050CB
     FM270300 VRB03KT P6SM SCT060 SCT250
     FM270900 VRB02KT 6SM BR SCT030 SCT250
     FM271300 22005KT P6SM SCT250=



Latest METAR

475
SAUS80 KWBC 280400 RRA
MTRTYS
METAR KTYS 280353Z 22008KT 10SM BKN080 OVC250 28/22 A2999 RMK AO2 SLP142
FRQ LTG DSNT N-E CB DSNT N-E T02780222


USA.gov is the U.S. government's official web portal to all federal, state and local government web resources and services.